createdAt,value
2022-09-12T00:01:54.202Z,75.22
2022-09-12T00:04:24.388Z,75.33
2022-09-12T00:06:54.563Z,75.85
2022-09-12T00:09:24.887Z,76.00
2022-09-12T00:11:55.132Z,76.31
2022-09-12T00:14:25.298Z,76.25
2022-09-12T00:17:00.725Z,76.56
2022-09-12T00:19:31.438Z,76.63
2022-09-12T00:22:01.696Z,76.27
2022-09-12T00:24:31.837Z,76.22
2022-09-12T00:27:01.971Z,76.47
2022-09-12T00:29:32.075Z,76.69
2022-09-12T00:32:05.360Z,76.58
2022-09-12T00:34:35.557Z,76.49
2022-09-12T00:37:06.222Z,75.82
2022-09-12T00:39:36.653Z,75.51
2022-09-12T00:42:07.038Z,76.10
2022-09-12T00:44:50.504Z,75.87
2022-09-12T00:47:26.929Z,75.97
2022-09-12T00:50:06.139Z,76.20
2022-09-12T00:52:40.357Z,76.50
2022-09-12T00:55:15.850Z,76.96
2022-09-12T00:57:52.072Z,76.96
2022-09-12T01:00:25.516Z,76.96
2022-09-12T01:03:01.452Z,76.58
2022-09-12T01:05:34.248Z,76.98
2022-09-12T01:08:06.617Z,77.25
2022-09-12T01:10:38.973Z,77.41
2022-09-12T01:13:11.965Z,77.33
2022-09-12T01:15:43.294Z,77.41
2022-09-12T01:18:22.342Z,77.45
2022-09-12T01:21:22.910Z,77.25
2022-09-12T01:24:25.708Z,77.78
2022-09-12T01:27:26.886Z,77.67
2022-09-12T01:30:08.795Z,77.92
2022-09-12T01:32:54.484Z,78.69
2022-09-12T01:35:31.381Z,79.56
2022-09-12T01:38:13.130Z,79.19
2022-09-12T01:40:49.941Z,79.20
2022-09-12T01:43:26.879Z,79.14
2022-09-12T01:46:04.287Z,79.03
2022-09-12T01:48:41.960Z,78.81
2022-09-12T01:51:18.203Z,78.79
2022-09-12T01:53:53.708Z,79.36
2022-09-12T01:56:29.870Z,79.15
2022-09-12T01:59:08.286Z,79.70
2022-09-12T02:01:43.259Z,79.88
2022-09-12T02:04:21.119Z,79.92
2022-09-12T02:06:56.465Z,80.04
2022-09-12T02:09:30.940Z,80.14
2022-09-12T02:12:03.739Z,79.94
2022-09-12T02:14:39.502Z,79.75
2022-09-12T02:17:14.246Z,80.25
2022-09-12T02:19:52.272Z,80.10
2022-09-12T02:22:25.678Z,80.42
2022-09-12T02:24:58.733Z,80.33
2022-09-12T02:27:33.731Z,80.52
2022-09-12T02:30:04.450Z,80.40
2022-09-12T02:32:39.848Z,80.06
2022-09-12T02:35:22.140Z,80.74
2022-09-12T02:38:00.447Z,80.47
2022-09-12T02:40:31.281Z,80.34
2022-09-12T02:43:01.596Z,80.59
2022-09-12T02:45:34.345Z,80.33
2022-09-12T02:48:07.598Z,80.80
2022-09-12T02:50:41.134Z,80.57
2022-09-12T02:53:12.229Z,80.86
2022-09-12T02:55:44.742Z,81.46
2022-09-12T02:58:18.527Z,81.37
2022-09-12T03:00:54.640Z,81.30
2022-09-12T03:03:43.458Z,81.55
2022-09-12T03:06:22.144Z,81.21
2022-09-12T03:09:05.897Z,81.48
2022-09-12T03:11:58.117Z,80.92
2022-09-12T03:14:52.161Z,81.59
2022-09-12T03:17:31.463Z,81.33
2022-09-12T03:20:10.159Z,81.27
2022-09-12T03:22:54.166Z,81.42
2022-09-12T03:25:30.884Z,80.68
2022-09-12T03:28:07.531Z,81.02
2022-09-12T03:30:41.231Z,80.97
2022-09-12T03:33:13.706Z,80.62
2022-09-12T03:35:44.230Z,81.32
2022-09-12T03:38:17.291Z,80.91
2022-09-12T03:40:50.361Z,81.16
2022-09-12T03:43:24.251Z,81.24
2022-09-12T03:45:55.044Z,81.78
2022-09-12T03:48:25.277Z,81.44
2022-09-12T03:50:55.425Z,81.80
2022-09-12T03:53:28.161Z,81.56
2022-09-12T03:55:58.279Z,81.69
2022-09-12T03:58:34.019Z,81.68
2022-09-12T04:01:04.135Z,81.43
2022-09-12T04:03:34.310Z,81.95
2022-09-12T04:06:04.471Z,81.93
2022-09-12T04:08:37.611Z,81.52
2022-09-12T04:11:08.734Z,81.61
2022-09-12T04:13:39.968Z,81.67
2022-09-12T04:16:10.715Z,81.35
2022-09-12T04:18:41.211Z,81.93
2022-09-12T04:21:13.589Z,81.65
2022-09-12T04:23:46.736Z,81.75
2022-09-12T04:26:18.435Z,81.43
2022-09-12T04:28:50.443Z,81.76
2022-09-12T04:31:22.897Z,81.59
2022-09-12T04:33:58.225Z,81.23
2022-09-12T04:36:29.370Z,81.08
2022-09-12T04:39:03.348Z,81.40
2022-09-12T04:41:34.761Z,81.08
2022-09-12T04:44:07.459Z,80.69
2022-09-12T04:46:39.676Z,80.67
2022-09-12T04:49:10.435Z,80.50
2022-09-12T04:51:42.753Z,80.74
2022-09-12T04:54:18.715Z,80.69
2022-09-12T04:56:50.786Z,80.37
2022-09-12T04:59:22.736Z,79.92
2022-09-12T05:01:53.106Z,79.85
2022-09-12T05:04:23.680Z,79.70
2022-09-12T05:06:53.796Z,79.29
2022-09-12T05:09:26.635Z,79.41
2022-09-12T05:12:05.348Z,79.06
2022-09-12T05:14:36.844Z,78.14
2022-09-12T05:17:08.108Z,77.70
2022-09-12T05:19:38.269Z,77.44
2022-09-12T05:22:08.549Z,77.85
2022-09-12T05:24:47.252Z,77.03
2022-09-12T05:27:20.266Z,76.01
2022-09-12T05:29:50.446Z,75.16
2022-09-12T05:32:20.890Z,74.89
2022-09-12T05:34:51.114Z,73.49
2022-09-12T05:37:21.263Z,72.83
2022-09-12T05:39:54.223Z,71.51
2022-09-12T05:42:24.875Z,70.64
2022-09-12T05:44:55.461Z,69.97
2022-09-12T05:47:25.597Z,69.50
2022-09-12T05:49:56.109Z,68.26
2022-09-12T05:52:26.642Z,68.38
2022-09-12T05:54:59.377Z,67.95
2022-09-12T05:57:29.488Z,66.88
2022-09-12T05:59:59.825Z,65.69
2022-09-12T06:02:30.699Z,65.03
2022-09-12T06:05:01.090Z,65.00
2022-09-12T06:07:32.167Z,64.02
2022-09-12T06:10:05.547Z,63.48
2022-09-12T06:12:35.683Z,62.97
2022-09-12T06:15:05.883Z,61.94
2022-09-12T06:17:36.027Z,58.58
2022-09-12T06:20:06.986Z,57.89
2022-09-12T06:22:37.121Z,56.88
2022-09-12T06:25:10.985Z,57.54
2022-09-12T06:27:40.827Z,55.90
2022-09-12T06:30:12.258Z,55.29
2022-09-12T06:32:42.497Z,54.97
2022-09-12T06:35:13.901Z,53.58
2022-09-12T06:37:46.818Z,53.16
2022-09-12T06:40:19.886Z,53.05
2022-09-12T06:42:50.032Z,52.52
2022-09-12T06:45:21.009Z,52.25
2022-09-12T06:47:51.516Z,51.79
2022-09-12T06:50:22.133Z,51.25
2022-09-12T06:52:52.679Z,51.00
2022-09-12T06:55:27.738Z,49.86
2022-09-12T06:57:58.512Z,49.18
2022-09-12T07:00:28.747Z,50.17
2022-09-12T07:02:59.330Z,48.93
2022-09-12T07:05:29.565Z,49.71
2022-09-12T07:07:59.760Z,47.68
2022-09-12T07:10:33.872Z,48.29
2022-09-12T07:13:03.727Z,46.70
2022-09-12T07:15:33.817Z,45.96
2022-09-12T07:18:04.158Z,46.08
2022-09-12T07:20:37.306Z,47.12
2022-09-12T07:23:07.498Z,46.31
2022-09-12T07:25:40.222Z,45.56
2022-09-12T07:28:10.498Z,46.15
2022-09-12T07:30:41.376Z,45.64
2022-09-12T07:33:11.942Z,44.21
2022-09-12T07:35:42.140Z,43.89
2022-09-12T07:38:12.306Z,43.30
2022-09-12T07:40:45.120Z,42.90
2022-09-12T07:43:15.353Z,42.07
2022-09-12T07:45:45.484Z,42.63
2022-09-12T07:48:16.512Z,40.35
2022-09-12T07:50:47.001Z,41.35
2022-09-12T07:53:17.200Z,40.94
2022-09-12T07:56:05.623Z,41.25
2022-09-12T07:58:38.205Z,39.88
2022-09-12T08:01:10.265Z,42.56
2022-09-12T08:03:41.104Z,40.90
2022-09-12T08:06:14.075Z,40.00
2022-09-12T08:08:45.322Z,37.32
2022-09-12T08:11:21.213Z,37.68
2022-09-12T08:13:55.215Z,38.38
2022-09-12T08:16:27.832Z,39.06
2022-09-12T08:18:58.702Z,38.05
2022-09-12T08:21:30.577Z,37.86
2022-09-12T08:24:02.243Z,38.09
2022-09-12T08:26:37.102Z,37.85
2022-09-12T08:29:07.768Z,37.63
2022-09-12T08:31:39.198Z,37.97
2022-09-12T08:34:09.914Z,37.45
2022-09-12T08:36:41.064Z,37.92
2022-09-12T08:39:11.301Z,37.27
2022-09-12T08:41:46.318Z,35.81
2022-09-12T08:44:37.518Z,34.88
2022-09-12T08:47:22.779Z,35.23
2022-09-12T08:50:00.578Z,33.61
2022-09-12T08:52:37.407Z,34.30
2022-09-12T08:55:14.843Z,33.19
2022-09-12T08:57:47.683Z,33.99
2022-09-12T09:00:21.647Z,34.60
2022-09-12T09:03:17.629Z,34.74
2022-09-12T09:05:53.288Z,34.72
2022-09-12T09:08:41.269Z,33.32
2022-09-12T09:11:24.218Z,34.90
2022-09-12T09:14:23.004Z,35.82
2022-09-12T09:16:55.648Z,35.20
2022-09-12T09:19:28.993Z,34.98
2022-09-12T09:22:04.295Z,35.54
2022-09-12T09:24:46.852Z,36.45
2022-09-12T09:27:39.865Z,37.67
2022-09-12T09:30:17.745Z,38.04
2022-09-12T09:32:53.004Z,35.13
2022-09-12T09:35:36.321Z,35.04
2022-09-12T09:38:21.750Z,35.41
2022-09-12T09:41:00.587Z,35.70
2022-09-12T09:43:31.377Z,36.85
2022-09-12T09:46:04.317Z,36.89
2022-09-12T09:48:37.863Z,36.03
2022-09-12T09:51:09.875Z,36.41
2022-09-12T09:53:47.905Z,36.24
2022-09-12T09:56:29.429Z,37.14
2022-09-12T09:58:59.821Z,35.66
2022-09-12T10:01:32.872Z,37.00
2022-09-12T10:04:03.293Z,36.72
2022-09-12T10:06:35.193Z,37.62
2022-09-12T10:09:20.778Z,38.12
2022-09-12T10:11:52.493Z,39.27
2022-09-12T10:14:36.901Z,39.63
2022-09-12T10:17:46.212Z,38.77
2022-09-12T10:20:34.925Z,40.64
2022-09-12T10:23:18.513Z,39.14
2022-09-12T10:25:50.098Z,38.58
2022-09-12T10:28:28.307Z,38.72
2022-09-12T10:31:02.951Z,37.61
2022-09-12T10:33:45.185Z,36.54
2022-09-12T10:36:16.129Z,36.69
2022-09-12T10:38:54.030Z,36.68
2022-09-12T10:41:24.765Z,35.95
2022-09-12T10:43:54.999Z,37.68
2022-09-12T10:46:33.158Z,37.42
2022-09-12T10:49:40.485Z,36.42
2022-09-12T10:52:29.547Z,35.08
2022-09-12T10:55:02.639Z,36.39
2022-09-12T10:57:51.975Z,36.96
2022-09-12T11:00:28.047Z,36.85
2022-09-12T11:03:08.522Z,35.29
2022-09-12T11:05:56.098Z,35.93
2022-09-12T11:09:00.304Z,34.99
2022-09-12T11:11:48.810Z,34.14
2022-09-12T11:14:44.369Z,34.78
2022-09-12T11:17:27.731Z,35.09
2022-09-12T11:20:21.062Z,34.53
2022-09-12T11:23:15.637Z,35.15
2022-09-12T11:25:57.470Z,35.91
2022-09-12T11:28:44.108Z,34.68
2022-09-12T11:31:49.290Z,34.18
2022-09-12T11:34:24.784Z,33.21
2022-09-12T11:37:18.298Z,33.45
2022-09-12T11:39:55.422Z,33.52
2022-09-12T11:42:35.005Z,31.97
2022-09-12T11:45:11.131Z,32.28
2022-09-12T11:47:43.174Z,32.61
2022-09-12T11:50:23.591Z,32.49
2022-09-12T11:52:55.931Z,32.73
2022-09-12T11:55:31.031Z,33.09
2022-09-12T11:58:05.259Z,32.86
2022-09-12T12:00:40.377Z,33.38
2022-09-12T12:03:17.589Z,33.25
2022-09-12T12:05:53.633Z,33.25
2022-09-12T12:08:25.119Z,33.65
2022-09-12T12:10:59.932Z,33.43
2022-09-12T12:13:36.921Z,32.02
2022-09-12T12:16:10.163Z,33.21
2022-09-12T12:18:42.215Z,31.54
2022-09-12T12:21:42.502Z,33.05
2022-09-12T12:24:22.307Z,33.29
2022-09-12T12:27:01.408Z,32.35
2022-09-12T12:29:47.965Z,32.21
2022-09-12T12:32:29.979Z,33.47
2022-09-12T12:35:31.117Z,33.34
2022-09-12T12:38:01.431Z,33.41
2022-09-12T12:40:33.950Z,32.33
2022-09-12T12:43:09.027Z,32.15
2022-09-12T12:46:03.287Z,31.98
2022-09-12T12:48:46.944Z,33.13
2022-09-12T12:51:31.110Z,33.19
2022-09-12T12:54:03.308Z,33.41
2022-09-12T12:56:41.724Z,33.01
2022-09-12T12:59:29.849Z,34.22
2022-09-12T13:02:07.506Z,31.83
2022-09-12T13:04:38.144Z,33.20
2022-09-12T13:07:12.170Z,33.20
2022-09-12T13:09:48.816Z,32.77
2022-09-12T13:12:25.132Z,34.36
2022-09-12T13:14:59.487Z,34.12
2022-09-12T13:17:37.177Z,34.75
2022-09-12T13:20:29.923Z,34.45
2022-09-12T13:23:01.240Z,34.54
2022-09-12T13:25:34.504Z,35.99
2022-09-12T13:28:08.026Z,36.51
2022-09-12T13:30:40.210Z,33.90
2022-09-12T13:33:23.848Z,34.54
2022-09-12T13:36:18.402Z,34.09
2022-09-12T13:39:00.021Z,33.76
2022-09-12T13:41:49.501Z,32.68
2022-09-12T13:44:23.245Z,33.50
2022-09-12T13:46:54.517Z,34.32
2022-09-12T13:49:35.334Z,33.54
2022-09-12T13:52:08.858Z,33.54
2022-09-12T13:54:41.733Z,33.95
2022-09-12T13:57:31.514Z,34.58
2022-09-12T14:00:03.349Z,33.21
2022-09-12T14:02:38.797Z,32.77
2022-09-12T14:05:21.453Z,33.16
2022-09-12T14:07:59.021Z,32.52
2022-09-12T14:10:33.239Z,33.01
2022-09-12T14:13:06.179Z,33.77
2022-09-12T14:15:40.048Z,33.61
2022-09-12T14:18:11.869Z,31.41
2022-09-12T14:20:45.098Z,32.61
2022-09-12T14:23:24.349Z,32.23
2022-09-12T14:25:56.464Z,32.22
2022-09-12T14:28:29.212Z,32.54
2022-09-12T14:31:05.138Z,32.46
2022-09-12T14:33:49.957Z,33.32
2022-09-12T14:36:26.843Z,33.50
2022-09-12T14:39:01.161Z,32.27
2022-09-12T14:41:34.292Z,32.04
2022-09-12T14:44:08.443Z,32.98
2022-09-12T14:46:40.709Z,32.18
2022-09-12T14:49:16.849Z,33.04
2022-09-12T14:51:57.289Z,32.77
2022-09-12T14:54:43.767Z,33.90
2022-09-12T14:57:33.895Z,33.22
2022-09-12T15:00:28.515Z,34.62
2022-09-12T15:02:58.675Z,34.86
2022-09-12T15:05:31.045Z,34.98
2022-09-12T15:08:04.585Z,34.75
2022-09-12T15:10:38.262Z,34.77
2022-09-12T15:13:17.572Z,34.99
2022-09-12T15:15:50.253Z,34.39
2022-09-12T15:18:21.461Z,34.47
2022-09-12T15:20:53.980Z,33.70
2022-09-12T15:23:33.926Z,33.97
2022-09-12T15:26:04.248Z,34.40
2022-09-12T15:28:35.308Z,34.97
2022-09-12T15:31:10.298Z,35.45
2022-09-12T15:33:40.577Z,33.52
2022-09-12T15:36:19.091Z,33.28
2022-09-12T15:38:52.493Z,33.09
2022-09-12T15:41:24.337Z,33.48
2022-09-12T15:43:54.502Z,33.20
2022-09-12T15:46:24.760Z,33.72
2022-09-12T15:48:54.994Z,33.89
2022-09-12T15:51:28.382Z,35.36
2022-09-12T15:54:01.341Z,35.05
2022-09-12T15:56:33.074Z,34.78
2022-09-12T15:59:03.315Z,34.56
2022-09-12T16:01:33.610Z,34.91
2022-09-12T16:04:05.791Z,34.78
2022-09-12T16:06:37.428Z,34.62
2022-09-12T16:09:14.792Z,35.65
2022-09-12T16:11:47.940Z,36.53
2022-09-12T16:14:19.187Z,36.55
2022-09-12T16:16:59.040Z,37.27
2022-09-12T16:19:29.337Z,37.65
2022-09-12T16:21:59.560Z,37.40
2022-09-12T16:24:32.656Z,37.96
2022-09-12T16:27:02.893Z,38.46
2022-09-12T16:29:33.204Z,38.64
2022-09-12T16:32:06.766Z,39.26
2022-09-12T16:34:37.100Z,39.13
2022-09-12T16:37:07.720Z,38.95
2022-09-12T16:39:40.501Z,38.79
2022-09-12T16:42:10.867Z,39.68
2022-09-12T16:44:41.434Z,39.94
2022-09-12T16:47:12.116Z,39.75
2022-09-12T16:49:42.290Z,40.41
2022-09-12T16:52:14.372Z,41.26
2022-09-12T16:54:47.168Z,40.36
2022-09-12T16:57:17.408Z,40.22
2022-09-12T16:59:47.693Z,40.11
2022-09-12T17:02:18.478Z,40.08
2022-09-12T17:04:49.472Z,40.50
2022-09-12T17:07:20.079Z,41.12
2022-09-12T17:09:53.354Z,41.32
2022-09-12T17:12:24.174Z,41.85
2022-09-12T17:14:57.060Z,41.91
2022-09-12T17:17:27.413Z,42.46
2022-09-12T17:19:57.586Z,42.03
2022-09-12T17:22:27.960Z,42.13
2022-09-12T17:25:00.863Z,42.47
2022-09-12T17:27:31.077Z,42.53
2022-09-12T17:30:01.294Z,42.33
2022-09-12T17:32:31.863Z,42.74
2022-09-12T17:35:02.227Z,43.79
2022-09-12T17:37:33.518Z,43.73
2022-09-12T17:40:06.742Z,44.11
2022-09-12T17:42:37.104Z,44.67
2022-09-12T17:45:08.389Z,44.86
2022-09-12T17:47:38.635Z,44.92
2022-09-12T17:50:30.952Z,44.94
2022-09-12T17:53:00.652Z,45.58
2022-09-12T17:55:34.268Z,45.56
2022-09-12T17:58:04.696Z,45.37
2022-09-12T18:00:47.323Z,45.02
2022-09-12T18:03:18.427Z,45.18
2022-09-12T18:05:49.769Z,45.48
2022-09-12T18:08:20.479Z,45.38
2022-09-12T18:10:54.263Z,45.47
2022-09-12T18:13:24.478Z,45.37
2022-09-12T18:15:54.823Z,45.46
2022-09-12T18:18:25.013Z,45.10
2022-09-12T18:20:55.189Z,45.13
2022-09-12T18:23:25.428Z,44.78
2022-09-12T18:26:03.935Z,45.47
2022-09-12T18:28:35.560Z,45.35
2022-09-12T18:31:05.862Z,45.23
2022-09-12T18:33:38.085Z,45.45
2022-09-12T18:36:09.308Z,45.62
2022-09-12T18:38:40.166Z,45.83
2022-09-12T18:41:15.000Z,46.32
2022-09-12T18:43:45.306Z,46.34
2022-09-12T18:46:20.265Z,46.09
2022-09-12T18:48:50.653Z,46.01
2022-09-12T18:51:22.796Z,46.00
2022-09-12T18:53:55.032Z,45.92
2022-09-12T18:56:32.980Z,45.96
2022-09-12T18:59:05.652Z,46.26
2022-09-12T19:01:38.291Z,46.79
2022-09-12T19:04:10.136Z,46.97
2022-09-12T19:06:42.614Z,46.93
2022-09-12T19:09:14.115Z,47.32
2022-09-12T19:11:52.755Z,47.48
2022-09-12T19:14:27.005Z,47.41
2022-09-12T19:16:57.323Z,47.09
2022-09-12T19:19:27.723Z,47.61
2022-09-12T19:21:58.326Z,47.68
2022-09-12T19:24:29.064Z,47.90
2022-09-12T19:27:01.872Z,47.41
2022-09-12T19:29:32.304Z,47.72
2022-09-12T19:32:05.971Z,48.11
2022-09-12T19:34:36.200Z,48.17
2022-09-12T19:37:06.447Z,48.27
2022-09-12T19:39:36.697Z,48.83
2022-09-12T19:42:09.857Z,48.84
2022-09-12T19:44:40.049Z,49.82
2022-09-12T19:47:10.954Z,49.80
2022-09-12T19:49:42.476Z,50.64
2022-09-12T19:52:17.228Z,51.65
2022-09-12T19:54:48.280Z,52.00
2022-09-12T19:57:21.050Z,51.99
2022-09-12T19:59:51.418Z,52.24
2022-09-12T20:02:21.677Z,52.60
2022-09-12T20:04:51.915Z,51.37
2022-09-12T20:07:22.187Z,52.01
2022-09-12T20:09:52.744Z,52.46
2022-09-12T20:12:25.489Z,52.53
2022-09-12T20:14:55.712Z,52.48
2022-09-12T20:17:25.895Z,52.90
2022-09-12T20:19:56.448Z,54.06
2022-09-12T20:22:26.770Z,54.76
2022-09-12T20:24:57.043Z,54.96
2022-09-12T20:27:29.936Z,55.73
2022-09-12T20:30:00.523Z,55.89
2022-09-12T20:32:31.670Z,55.76
2022-09-12T20:35:01.805Z,56.54
2022-09-12T20:37:32.802Z,57.23
2022-09-12T20:40:03.071Z,57.04
2022-09-12T20:42:36.078Z,57.45
2022-09-12T20:45:07.030Z,57.23
2022-09-12T20:47:37.114Z,58.21
2022-09-12T20:50:08.342Z,58.53
2022-09-12T20:52:38.447Z,58.66
2022-09-12T20:55:09.594Z,58.86
2022-09-12T20:57:42.443Z,58.84
2022-09-12T21:00:14.916Z,59.12
2022-09-12T21:02:45.054Z,59.74
2022-09-12T21:05:15.268Z,59.65
2022-09-12T21:07:45.444Z,59.72
2022-09-12T21:10:15.630Z,60.55
2022-09-12T21:12:48.370Z,60.78
2022-09-12T21:15:18.816Z,60.42
2022-09-12T21:17:49.272Z,60.54
2022-09-12T21:20:19.669Z,61.44
2022-09-12T21:22:49.789Z,61.57
2022-09-12T21:25:19.983Z,61.79
2022-09-12T21:27:52.865Z,61.76
2022-09-12T21:30:23.190Z,62.58
2022-09-12T21:32:53.293Z,62.87
2022-09-12T21:35:23.554Z,63.05
2022-09-12T21:37:54.614Z,63.22
2022-09-12T21:40:25.163Z,63.77
2022-09-12T21:42:58.219Z,63.76
2022-09-12T21:45:28.477Z,64.24
2022-09-12T21:47:58.954Z,64.09
2022-09-12T21:50:29.714Z,64.58
2022-09-12T21:53:00.054Z,64.55
2022-09-12T21:55:30.244Z,65.03
2022-09-12T21:58:02.947Z,65.67
2022-09-12T22:00:33.104Z,65.87
2022-09-12T22:03:03.578Z,65.78
2022-09-12T22:05:34.574Z,66.02
2022-09-12T22:08:05.210Z,65.95
2022-09-12T22:10:35.600Z,66.14
2022-09-12T22:13:08.338Z,66.28
2022-09-12T22:15:41.055Z,66.66
2022-09-12T22:18:11.741Z,66.71
2022-09-12T22:20:41.914Z,65.87
2022-09-12T22:23:26.798Z,66.38
2022-09-12T22:25:58.662Z,67.40
2022-09-12T22:28:32.362Z,67.81
2022-09-12T22:31:02.491Z,67.99
2022-09-12T22:33:32.664Z,67.23
2022-09-12T22:36:02.835Z,67.24
2022-09-12T22:38:33.437Z,66.79
2022-09-12T22:41:06.550Z,66.81
2022-09-12T22:43:39.844Z,66.74
2022-09-12T22:46:12.350Z,67.23
2022-09-12T22:48:43.330Z,67.32
2022-09-12T22:51:14.204Z,68.12
2022-09-12T22:53:45.073Z,68.17
2022-09-12T22:56:15.433Z,68.54
2022-09-12T22:58:48.251Z,68.51
2022-09-12T23:01:18.684Z,68.99
2022-09-12T23:03:49.104Z,69.39
2022-09-12T23:06:20.002Z,69.34
2022-09-12T23:08:50.157Z,69.55
2022-09-12T23:11:22.345Z,69.55
2022-09-12T23:13:55.095Z,69.02
2022-09-12T23:16:28.525Z,69.40
2022-09-12T23:18:58.689Z,69.46
2022-09-12T23:21:30.126Z,69.10
2022-09-12T23:24:03.186Z,68.78
2022-09-12T23:26:33.528Z,68.89
2022-09-12T23:29:08.442Z,68.89
2022-09-12T23:31:39.027Z,68.85
2022-09-12T23:34:09.364Z,69.09
2022-09-12T23:36:39.663Z,68.54
2022-09-12T23:39:09.994Z,69.62
2022-09-12T23:41:40.650Z,69.99
2022-09-12T23:44:13.464Z,70.04
2022-09-12T23:46:48.728Z,70.22
2022-09-12T23:49:18.954Z,70.52
2022-09-12T23:51:49.153Z,70.88
2022-09-12T23:54:19.559Z,70.56
2022-09-12T23:56:49.770Z,70.07
2022-09-12T23:59:22.540Z,68.81
